Time;durP1;ratioP1;P1;durP2;ratioP2;P2;SDS_P1;SDS_P2;PMS_P1;PMS_P2;Temp;Humidity;BMP_temperature;BMP_pressure;BME280_temperature;BME280_humidity;BME280_pressure;Samples;Min_cycle;Max_cycle;Signal;HPM_P1;HPM_P2
2024/02/02 00:00:55;;;;;;;88.10;59.63;;;23.00;99.90;;;;;;5054264;28;20438;-54
2024/02/02 00:03:21;;;;;;;87.57;60.37;;;22.90;99.90;;;;;;5054489;28;20029;-53
2024/02/02 00:05:47;;;;;;;88.20;58.43;;;22.90;99.90;;;;;;5054354;28;20029;-52
2024/02/02 00:08:12;;;;;;;88.43;58.40;;;22.90;99.90;;;;;;5054167;28;20065;-51
2024/02/02 00:10:39;;;;;;;86.53;57.13;;;22.90;99.90;;;;;;5053640;28;20117;-55
2024/02/02 00:13:04;;;;;;;82.93;58.30;;;22.90;99.90;;;;;;5053997;28;20032;-53
2024/02/02 00:15:30;;;;;;;86.97;58.53;;;22.90;99.90;;;;;;5054109;28;20021;-54
2024/02/02 00:17:56;;;;;;;88.07;58.83;;;22.90;99.90;;;;;;5053741;28;20068;-54
2024/02/02 00:20:21;;;;;;;86.00;59.10;;;22.90;99.90;;;;;;5052530;28;20023;-55
2024/02/02 00:22:47;;;;;;;86.57;58.07;;;22.90;99.90;;;;;;5048658;28;20483;-55
2024/02/02 00:25:13;;;;;;;82.13;57.50;;;22.90;99.90;;;;;;5053940;28;20021;-55
2024/02/02 00:27:38;;;;;;;86.03;57.00;;;22.90;99.90;;;;;;5052088;28;20025;-53
2024/02/02 00:30:04;;;;;;;81.60;55.90;;;22.80;99.90;;;;;;5053621;28;20025;-52
2024/02/02 00:32:30;;;;;;;85.90;58.23;;;22.80;99.90;;;;;;5053427;28;20025;-54
2024/02/02 00:34:55;;;;;;;89.33;59.93;;;22.80;99.90;;;;;;5053480;28;20096;-52
2024/02/02 00:37:21;;;;;;;87.57;59.27;;;22.80;99.90;;;;;;5053621;28;20537;-55
2024/02/02 00:39:47;;;;;;;83.87;58.40;;;22.70;99.90;;;;;;5053681;28;20100;-56
2024/02/02 00:42:12;;;;;;;84.70;59.77;;;22.80;99.90;;;;;;5041050;28;20025;-57
2024/02/02 00:44:38;;;;;;;83.00;56.53;;;22.80;99.90;;;;;;5050348;28;20029;-56
2024/02/02 00:47:03;;;;;;;88.57;59.57;;;22.70;99.90;;;;;;5050504;28;20036;-55
2024/02/02 00:49:29;;;;;;;82.50;56.73;;;22.70;99.90;;;;;;5042520;28;20454;-54
2024/02/02 00:51:54;;;;;;;85.00;58.73;;;22.80;99.90;;;;;;5038954;28;20098;-55
2024/02/02 00:54:20;;;;;;;88.77;56.73;;;22.70;99.90;;;;;;5043339;28;20036;-54
2024/02/02 00:56:46;;;;;;;85.97;58.93;;;22.70;99.90;;;;;;5048936;28;20029;-55
2024/02/02 00:59:12;;;;;;;89.07;57.60;;;22.70;99.90;;;;;;5051612;28;20029;-54
2024/02/02 01:01:37;;;;;;;88.07;58.00;;;22.60;99.90;;;;;;5052788;28;20022;-52
2024/02/02 01:04:03;;;;;;;80.30;57.30;;;22.70;99.90;;;;;;5052864;28;20040;-54
2024/02/02 01:06:29;;;;;;;89.13;58.30;;;22.70;99.90;;;;;;5052057;28;20111;-54
2024/02/02 01:08:54;;;;;;;81.57;56.10;;;22.70;99.90;;;;;;5051283;28;20174;-53
2024/02/02 01:14:48;;;;;;;84.87;56.10;;;22.60;99.90;;;;;;5038299;28;20435;-54
2024/02/02 01:17:14;;;;;;;84.27;56.67;;;22.60;99.90;;;;;;5037658;28;20029;-54
2024/02/02 01:19:39;;;;;;;84.10;56.80;;;22.60;99.90;;;;;;5052796;28;20021;-52
2024/02/02 01:22:05;;;;;;;79.30;55.27;;;22.60;99.90;;;;;;5052436;28;20367;-53
2024/02/02 01:24:31;;;;;;;80.80;54.20;;;22.60;99.90;;;;;;5052858;28;20029;-54
2024/02/02 01:26:57;;;;;;;83.10;55.07;;;22.60;99.90;;;;;;5052769;28;20523;-51
2024/02/02 01:29:25;;;;;;;80.37;54.27;;;22.60;99.90;;;;;;5047976;28;20018;-52
2024/02/02 01:31:51;;;;;;;80.43;54.10;;;22.60;99.90;;;;;;5041803;28;20162;-49
2024/02/02 01:34:17;;;;;;;80.40;54.87;;;22.60;99.90;;;;;;5052274;28;20496;-54
2024/02/02 01:36:43;;;;;;;81.20;55.73;;;22.60;99.90;;;;;;5052418;28;20115;-53
2024/02/02 01:39:11;;;;;;;90.33;56.57;;;22.60;99.90;;;;;;5050914;28;20112;-55
2024/02/02 01:41:40;;;;;;;83.87;55.57;;;22.60;99.90;;;;;;5051196;28;20016;-55
2024/02/02 01:44:06;;;;;;;81.90;54.73;;;22.60;99.90;;;;;;5052119;28;20021;-53
2024/02/02 01:46:32;;;;;;;84.23;55.03;;;22.60;99.90;;;;;;5052203;28;20025;-52
2024/02/02 01:48:58;;;;;;;80.33;53.57;;;22.60;99.90;;;;;;5052056;28;20510;-50
2024/02/02 01:51:24;;;;;;;80.87;53.80;;;22.60;99.90;;;;;;5050783;28;20478;-56
2024/02/02 01:53:51;;;;;;;78.30;52.10;;;22.60;99.90;;;;;;5050708;28;20025;-53
2024/02/02 01:56:17;;;;;;;79.40;53.70;;;22.60;99.90;;;;;;5052045;28;20033;-55
2024/02/02 01:58:43;;;;;;;78.37;53.60;;;22.60;99.90;;;;;;5051867;28;20517;-56
2024/02/02 02:01:09;;;;;;;80.80;53.43;;;22.50;99.90;;;;;;5052221;28;20021;-54
2024/02/02 02:03:34;;;;;;;82.03;54.17;;;22.60;99.90;;;;;;5050728;28;20090;-56
2024/02/02 02:06:00;;;;;;;79.10;53.90;;;22.60;99.90;;;;;;5051879;28;20032;-56
2024/02/02 02:08:26;;;;;;;78.47;52.20;;;22.50;99.90;;;;;;5045944;28;20029;-56
2024/02/02 02:10:52;;;;;;;85.97;55.73;;;22.50;99.90;;;;;;5039626;28;20060;-56
2024/02/02 02:13:17;;;;;;;83.07;53.97;;;22.50;99.90;;;;;;5050949;28;20460;-56
2024/02/02 02:15:43;;;;;;;77.17;52.63;;;22.50;99.90;;;;;;5049830;28;20036;-54
2024/02/02 02:18:09;;;;;;;77.93;51.77;;;22.50;99.90;;;;;;5049194;28;20040;-57
2024/02/02 02:20:34;;;;;;;73.47;49.60;;;22.50;99.90;;;;;;5048258;28;20127;-53
2024/02/02 02:23:01;;;;;;;81.43;52.90;;;22.50;99.90;;;;;;5044991;28;20029;-55
2024/02/02 02:25:27;;;;;;;77.57;52.30;;;22.50;99.90;;;;;;5050425;28;20510;-53
2024/02/02 02:27:52;;;;;;;85.33;52.40;;;22.50;99.90;;;;;;5045936;28;20131;-55
2024/02/02 02:30:18;;;;;;;77.23;52.07;;;22.50;99.90;;;;;;5033194;28;20108;-56
2024/02/02 02:32:44;;;;;;;72.03;49.93;;;22.50;99.90;;;;;;5050794;28;20032;-56
2024/02/02 02:35:09;;;;;;;79.97;52.90;;;22.50;99.90;;;;;;5051025;28;20029;-54
2024/02/02 02:37:35;;;;;;;78.57;53.80;;;22.50;99.90;;;;;;5045574;28;20111;-55
2024/02/02 02:40:01;;;;;;;76.80;51.27;;;22.40;99.90;;;;;;5049249;28;20083;-55
2024/02/02 02:42:27;;;;;;;72.37;51.00;;;22.40;99.90;;;;;;5049388;28;20036;-56
2024/02/02 02:44:52;;;;;;;78.17;49.97;;;22.40;99.90;;;;;;5050802;28;20029;-56
2024/02/02 02:47:18;;;;;;;78.73;49.70;;;22.40;99.90;;;;;;5050705;28;20086;-57
2024/02/02 02:49:44;;;;;;;79.93;50.67;;;22.40;99.90;;;;;;5050881;28;20021;-56
2024/02/02 02:52:10;;;;;;;73.73;49.20;;;22.40;99.90;;;;;;5050879;28;20046;-55
2024/02/02 02:54:35;;;;;;;77.57;51.53;;;22.40;99.90;;;;;;5050505;28;20021;-54
2024/02/02 02:57:01;;;;;;;73.80;50.73;;;22.40;99.90;;;;;;5049843;28;20021;-56
2024/02/02 02:59:28;;;;;;;77.13;50.23;;;22.40;99.90;;;;;;5049798;28;20044;-51
2024/02/02 03:01:55;;;;;;;72.07;49.93;;;22.10;99.90;;;;;;5040644;28;20467;-53
2024/02/02 03:04:21;;;;;;;76.17;50.37;;;22.40;99.90;;;;;;5046224;28;20029;-52
2024/02/02 03:06:46;;;;;;;78.00;50.87;;;22.40;99.90;;;;;;5043027;28;20120;-53
2024/02/02 03:09:12;;;;;;;77.83;48.87;;;22.30;99.90;;;;;;5044324;28;20021;-53
2024/02/02 03:11:38;;;;;;;71.70;50.87;;;22.30;99.90;;;;;;5050420;28;20033;-51
2024/02/02 03:14:03;;;;;;;76.73;50.73;;;22.40;99.90;;;;;;5047285;28;20057;-51
2024/02/02 03:16:29;;;;;;;75.77;48.77;;;22.30;99.90;;;;;;5048285;28;20028;-52
2024/02/02 03:18:55;;;;;;;72.07;48.47;;;22.30;99.90;;;;;;5049475;28;20044;-53
2024/02/02 03:21:20;;;;;;;74.87;49.53;;;22.30;99.90;;;;;;5049036;28;20020;-51
2024/02/02 03:23:46;;;;;;;72.80;48.47;;;22.20;99.90;;;;;;5038391;28;20025;-54
2024/02/02 03:26:12;;;;;;;78.43;49.63;;;22.30;99.90;;;;;;5050415;28;20021;-51
2024/02/02 03:28:37;;;;;;;81.57;50.83;;;22.20;99.90;;;;;;5047132;28;20475;-53
2024/02/02 03:31:03;;;;;;;76.77;48.90;;;22.20;99.90;;;;;;5046913;28;20082;-54
2024/02/02 03:33:29;;;;;;;81.67;52.17;;;22.30;99.90;;;;;;5051214;28;20103;-52
2024/02/02 03:35:54;;;;;;;75.17;50.43;;;22.20;99.90;;;;;;5050036;28;20031;-51
2024/02/02 03:38:20;;;;;;;72.67;50.33;;;22.20;99.90;;;;;;5046681;28;20043;-57
2024/02/02 03:40:45;;;;;;;75.80;49.87;;;22.30;99.90;;;;;;5052393;28;20127;-55
2024/02/02 03:43:11;;;;;;;77.23;50.73;;;22.30;99.90;;;;;;5050928;28;20036;-51
2024/02/02 03:45:37;;;;;;;78.20;50.80;;;22.30;99.90;;;;;;5051531;28;20049;-55
2024/02/02 03:48:03;;;;;;;80.93;51.40;;;22.30;99.90;;;;;;5051369;28;20068;-56
2024/02/02 03:50:29;;;;;;;80.67;51.97;;;22.20;99.90;;;;;;5045860;28;20021;-56
2024/02/02 03:52:55;;;;;;;79.57;51.63;;;22.20;99.90;;;;;;5052845;28;20036;-56
2024/02/02 03:55:21;;;;;;;73.20;50.07;;;22.20;99.90;;;;;;5054092;28;20089;-56
2024/02/02 03:57:47;;;;;;;79.53;53.03;;;22.20;99.90;;;;;;5053904;28;20041;-55
2024/02/02 04:00:37;;;;;;;75.00;50.40;;;22.20;99.90;;;;;;5041947;28;20029;-56
2024/02/02 04:03:03;;;;;;;74.47;50.90;;;22.20;99.90;;;;;;5045737;28;20032;-55
2024/02/02 04:05:29;;;;;;;76.30;50.50;;;22.10;99.90;;;;;;5046000;28;20022;-55
2024/02/02 04:07:54;;;;;;;75.33;49.53;;;22.10;99.90;;;;;;5054031;28;20600;-55
2024/02/02 04:10:20;;;;;;;73.83;49.43;;;;;;;;;;5054051;28;20048;-54
2024/02/02 04:12:46;;;;;;;78.30;49.97;;;;;;;;;;5054174;28;20010;-54
2024/02/02 04:15:12;;;;;;;81.80;51.67;;;;;;;;;;5042240;28;20033;-55
2024/02/02 04:17:48;;;;;;;71.07;50.33;;;;;;;;;;5051621;28;20537;-57
2024/02/02 04:20:14;;;;;;;76.80;51.80;;;;;;;;;;5054265;28;20021;-56
2024/02/02 04:22:40;;;;;;;69.10;48.90;;;;;;;;;;5053668;28;20021;-55
2024/02/02 04:25:06;;;;;;;73.27;50.60;;;;;;;;;;5053798;28;20518;-56
2024/02/02 04:27:34;;;;;;;76.63;50.10;;;;;;;;;;5053759;28;20024;-51
2024/02/02 04:30:00;;;;;;;74.90;51.00;;;;;;;;;;5053803;28;20075;-54
2024/02/02 04:32:26;;;;;;;71.03;49.53;;;;;;;;;;5052356;28;20033;-55
2024/02/02 04:34:52;;;;;;;74.77;49.13;;;;;;;;;;5053711;28;20344;-54
2024/02/02 04:37:18;;;;;;;76.13;48.17;;;;;;;;;;5053686;28;20021;-55
2024/02/02 04:39:44;;;;;;;76.70;48.83;;;;;;;;;;5053247;28;20056;-50
2024/02/02 04:42:10;;;;;;;76.50;48.40;;;;;;;;;;5053521;28;20029;-53
2024/02/02 04:44:36;;;;;;;74.07;49.97;;;;;;;;;;5039277;28;20033;-55
2024/02/02 04:47:03;;;;;;;75.07;50.67;;;;;;;;;;5053493;28;20021;-53
2024/02/02 04:49:30;;;;;;;76.37;51.33;;;;;;;;;;5053450;28;20025;-55
2024/02/02 04:51:56;;;;;;;74.97;50.07;;;;;;;;;;5048151;28;20021;-51
2024/02/02 04:54:21;;;;;;;76.50;49.80;;;;;;;;;;5044971;28;20017;-54
2024/02/02 04:56:47;;;;;;;74.77;49.37;;;;;;;;;;5053273;28;20021;-53
2024/02/02 04:59:13;;;;;;;73.87;48.63;;;;;;;;;;5052923;28;20041;-54
2024/02/02 05:01:39;;;;;;;77.60;48.77;;;;;;;;;;5038962;28;20048;-51
2024/02/02 05:04:05;;;;;;;75.70;49.53;;;;;;;;;;5052737;28;20025;-53
2024/02/02 05:06:31;;;;;;;75.20;51.10;;;;;;;;;;5053380;28;20021;-53
2024/02/02 05:08:58;;;;;;;77.87;50.57;;;;;;;;;;5053282;28;20031;-52
2024/02/02 05:11:24;;;;;;;74.87;49.77;;;;;;;;;;5051367;28;20372;-53
2024/02/02 05:13:50;;;;;;;74.03;49.73;;;;;;;;;;5051436;28;20070;-55
2024/02/02 05:16:16;;;;;;;82.90;50.20;;;;;;;;;;5052868;28;20128;-52
2024/02/02 05:18:42;;;;;;;78.97;50.40;;;;;;;;;;5052716;28;20113;-54
2024/02/02 05:21:08;;;;;;;69.47;49.00;;;;;;;;;;5052796;28;20355;-55
2024/02/02 05:23:34;;;;;;;75.73;49.90;;;;;;;;;;5051440;28;20028;-49
2024/02/02 05:26:00;;;;;;;76.03;51.03;;;;;;;;;;5052576;28;20073;-51
2024/02/02 05:28:26;;;;;;;78.20;51.47;;;;;;;;;;5052459;28;20056;-53
2024/02/02 05:30:52;;;;;;;81.57;52.93;;;;;;;;;;5051528;28;20128;-53
2024/02/02 05:33:18;;;;;;;76.90;52.87;;;;;;;;;;5052590;28;20028;-54
2024/02/02 05:35:44;;;;;;;81.63;52.43;;;;;;;;;;5052477;28;20423;-54
2024/02/02 05:38:10;;;;;;;78.00;50.67;;;;;;;;;;5052438;28;20029;-53
2024/02/02 05:40:36;;;;;;;74.80;51.63;;;;;;;;;;5051082;28;20032;-54
2024/02/02 05:43:02;;;;;;;85.73;55.57;;;;;;;;;;5038612;28;20112;-52
2024/02/02 05:45:28;;;;;;;84.63;52.87;;;;;;;;;;5045193;28;20021;-53
2024/02/02 05:47:54;;;;;;;84.37;53.10;;;;;;;;;;5051999;28;20108;-54
2024/02/02 05:53:30;;;;;;;79.30;54.77;;;;;;;;;;5045406;28;20043;-55
2024/02/02 05:55:56;;;;;;;90.23;55.60;;;;;;;;;;5050664;28;20104;-52
2024/02/02 05:58:22;;;;;;;81.33;53.67;;;;;;;;;;5038979;28;20025;-54
2024/02/02 06:00:48;;;;;;;82.47;55.50;;;;;;;;;;5033609;28;20031;-52
2024/02/02 06:03:14;;;;;;;83.23;54.17;;;;;;;;;;5045291;28;20451;-56
2024/02/02 06:05:40;;;;;;;87.27;55.60;;;;;;;;;;5050599;28;20032;-54
2024/02/02 06:08:06;;;;;;;80.83;52.60;;;;;;;;;;5050652;28;20043;-54
2024/02/02 06:10:35;;;;;;;86.13;54.07;;;;;;;;;;5047801;28;20392;-54
2024/02/02 06:13:01;;;;;;;77.93;53.03;;;;;;;;;;5051655;28;20037;-55
2024/02/02 06:15:27;;;;;;;84.27;55.17;;;;;;;;;;5049787;28;20025;-54
2024/02/02 06:17:53;;;;;;;83.87;55.93;;;;;;;;;;5040049;28;20059;-55
2024/02/02 06:20:19;;;;;;;81.50;53.83;;;;;;;;;;5052187;28;20078;-53
2024/02/02 06:22:45;;;;;;;86.47;57.37;;;;;;;;;;5050511;28;20032;-56
2024/02/02 06:25:11;;;;;;;89.80;55.20;;;;;;;;;;5050688;28;20025;-52
2024/02/02 06:27:37;;;;;;;86.07;56.70;;;;;;;;;;5049234;28;20052;-55
2024/02/02 06:30:04;;;;;;;92.13;59.57;;;;;;;;;;5042021;28;20463;-55
2024/02/02 06:32:31;;;;;;;83.90;56.23;;;;;;;;;;5051599;28;20029;-54
2024/02/02 06:34:58;;;;;;;98.37;61.67;;;;;;;;;;5050058;28;20433;-56
2024/02/02 06:37:25;;;;;;;97.30;61.37;;;;;;;;;;5037444;28;20502;-58
2024/02/02 06:39:52;;;;;;;93.83;62.07;;;;;;;;;;5051548;28;20052;-56
2024/02/02 06:42:19;;;;;;;96.83;65.40;;;;;;;;;;5051597;28;20077;-56
2024/02/02 06:44:45;;;;;;;90.90;63.23;;;;;;;;;;5035797;28;20018;-57
2024/02/02 06:47:11;;;;;;;95.87;63.10;;;;;;;;;;5042945;28;20021;-57
2024/02/02 06:49:36;;;;;;;94.57;61.80;;;;;;;;;;5051788;28;20064;-58
2024/02/02 06:52:03;;;;;;;95.03;63.00;;;;;;;;;;5051424;28;20022;-57
2024/02/02 06:54:29;;;;;;;88.60;61.07;;;;;;;;;;5051355;28;20036;-57
2024/02/02 06:56:55;;;;;;;98.57;62.47;;;;;;;;;;5051489;28;20486;-58
2024/02/02 07:02:26;;;;;;;87.80;61.57;;;;;;;;;;5035620;28;20390;-58
2024/02/02 07:04:53;;;;;;;95.07;62.93;;;;;;;;;;5050026;28;20032;-56
2024/02/02 07:07:19;;;;;;;88.17;59.17;;;;;;;;;;5049808;28;20048;-57
2024/02/02 07:09:56;;;;;;;89.30;58.97;;;;;;;;;;5046753;28;20045;-57
2024/02/02 07:12:41;;;;;;;94.40;60.97;;;;;;;;;;5055089;28;20168;-57
2024/02/02 07:15:10;;;;;;;94.07;59.55;;;;;;;;;;5055259;28;20489;-54
2024/02/02 07:17:40;;;;;;;90.90;58.93;;;;;;;;;;5053627;28;20020;-56
2024/02/02 07:20:10;;;;;;;92.73;60.63;;;;;;;;;;5055273;28;20029;-58
2024/02/02 07:22:39;;;;;;;88.37;60.37;;;;;;;;;;5054776;28;20052;-57
2024/02/02 07:25:18;;;;;;;93.97;62.47;;;;;;;;;;5054822;28;20057;-53
2024/02/02 07:27:54;;;;;;;90.93;61.60;;;;;;;;;;5053315;28;20033;-58
2024/02/02 07:30:29;;;;;;;98.90;63.23;;;;;;;;;;5055006;28;20033;-57
2024/02/02 07:32:55;;;;;;;91.87;61.63;;;;;;;;;;5049110;28;20157;-57
2024/02/02 07:35:32;;;;;;;90.23;58.83;;;;;;;;;;5049873;28;20108;-57
2024/02/02 07:38:02;;;;;;;85.73;55.33;;;;;;;;;;5053253;28;20435;-58
2024/02/02 07:40:31;;;;;;;93.20;56.43;;;;;;;;;;5053227;28;20021;-58
2024/02/02 07:42:57;;;;;;;84.23;57.43;;;;;;;;;;5047430;28;20060;-57
2024/02/02 07:45:23;;;;;;;88.70;55.30;;;;;;;;;;5048214;28;20021;-58
2024/02/02 07:47:49;;;;;;;87.13;56.43;;;;;;;;;;5054334;28;20089;-58
2024/02/02 07:50:15;;;;;;;80.60;53.00;;;;;;;;;;5054508;28;20114;-58
2024/02/02 07:52:41;;;;;;;92.63;55.87;;;;;;;;;;5054432;28;20489;-58
2024/02/02 07:55:07;;;;;;;87.53;54.27;;;;;;;;;;5054261;28;20056;-58
2024/02/02 07:57:33;;;;;;;82.10;54.67;;;;;;;;;;5054033;28;20029;-58
2024/02/02 07:59:59;;;;;;;81.60;55.47;;;;;;;;;;5054343;28;20044;-58
2024/02/02 08:02:25;;;;;;;88.67;54.87;;;;;;;;;;5054268;28;20017;-58
2024/02/02 08:04:51;;;;;;;85.70;54.63;;;;;;;;;;5053391;28;20044;-58
2024/02/02 08:07:17;;;;;;;82.67;54.17;;;;;;;;;;5054448;28;20025;-57
2024/02/02 08:09:43;;;;;;;84.73;55.30;;;;;;;;;;5052530;28;20049;-59
2024/02/02 08:12:09;;;;;;;78.17;53.27;;;;;;;;;;5051503;28;20043;-57
2024/02/02 08:14:35;;;;;;;81.97;54.57;;;;;;;;;;5043016;28;20102;-57
2024/02/02 08:17:06;;;;;;;78.47;52.67;;;;;;;;;;5053631;28;20025;-58
2024/02/02 08:19:32;;;;;;;79.63;53.53;;;;;;;;;;5052561;28;20043;-58
2024/02/02 08:21:58;;;;;;;81.03;52.00;;;;;;;;;;5053903;28;20017;-58
2024/02/02 08:24:25;;;;;;;82.03;52.97;;;;;;;;;;5039634;28;20476;-58
2024/02/02 08:26:51;;;;;;;81.40;53.10;;;;;;;;;;5052508;28;20028;-57
2024/02/02 08:29:17;;;;;;;80.13;53.63;;;;;;;;;;5053686;28;20155;-58
2024/02/02 08:31:46;;;;;;;79.00;54.10;;;;;;;;;;5044034;28;20021;-57
2024/02/02 08:34:12;;;;;;;81.67;53.27;;;;;;;;;;5050100;28;20029;-58
2024/02/02 08:36:39;;;;;;;81.00;51.67;;;;;;;;;;5053622;28;20121;-59
2024/02/02 08:39:05;;;;;;;77.17;50.97;;;;;;;;;;5053697;28;20029;-58
2024/02/02 08:41:31;;;;;;;77.83;52.13;;;;;;;;;;5053422;28;20478;-56
2024/02/02 08:43:57;;;;;;;72.03;49.90;;;;;;;;;;5053535;28;20036;-60
2024/02/02 08:46:23;;;;;;;78.33;51.03;;;;;;;;;;5053281;28;20191;-64
2024/02/02 08:48:55;;;;;;;79.27;51.13;;;;;;;;;;5053800;28;20382;-65
2024/02/02 08:51:24;;;;;;;76.13;50.80;;;;;;;;;;5052288;28;20021;-59
2024/02/02 08:53:50;;;;;;;77.43;51.73;;;;;;;;;;5053133;28;20017;-62
2024/02/02 08:56:16;;;;;;;75.77;51.77;;;;;;;;;;5053213;28;20025;-62
2024/02/02 08:58:42;;;;;;;84.00;54.23;;;;;;;;;;5053151;28;20029;-71
2024/02/02 09:01:34;;;;;;;80.63;52.93;;;;;;;;;;5053333;28;20025;-62
2024/02/02 09:04:05;;;;;;;85.63;53.37;;;;;;;;;;5043235;28;20021;-70
2024/02/02 09:06:46;;;;;;;78.03;52.83;;;;;;;;;;5053147;28;20028;-70
2024/02/02 09:09:14;;;;;;;82.40;53.37;;;;;;;;;;5053436;28;20032;-77
2024/02/02 09:11:42;;;;;;;80.00;52.83;;;;;;;;;;5043993;28;20037;-63
2024/02/02 09:14:17;;;;;;;87.13;55.40;;;;;;;;;;5040287;28;20033;-62
2024/02/02 09:16:50;;;;;;;80.63;54.87;;;;;;;;;;5044118;28;20102;-62
2024/02/02 09:19:41;;;;;;;76.93;54.20;;;;;;;;;;5053094;28;20072;-61
2024/02/02 09:22:09;;;;;;;84.23;55.83;;;;;;;;;;5053012;28;20036;-60
2024/02/02 09:24:42;;;;;;;85.80;53.83;;;;;;;;;;5052954;28;20017;-50
2024/02/02 09:27:09;;;;;;;83.97;54.80;;;;;;;;;;5047428;28;20482;-65
2024/02/02 09:29:40;;;;;;;90.40;55.90;;;;;;;;;;5043130;28;20024;-69
2024/02/02 09:32:08;;;;;;;85.80;54.93;;;;;;;;;;5052893;28;20025;-64
2024/02/02 09:34:34;;;;;;;87.83;56.47;;;;;;;;;;5052818;28;20048;-67
2024/02/02 09:37:22;;;;;;;85.13;56.97;;;;;;;;;;5052425;28;20383;-62
2024/02/02 09:39:50;;;;;;;88.73;58.77;;;;;;;;;;5052508;28;20033;-62
2024/02/02 09:42:55;;;;;;;89.13;59.87;;;;;;;;;;5043541;28;20494;-61
2024/02/02 09:45:31;;;;;;;92.35;60.00;;;;;;;;;;5046864;28;20055;-64
2024/02/02 09:48:10;;;;;;;93.10;63.13;;;;;;;;;;5046087;28;20101;-65
2024/02/02 09:50:43;;;;;;;88.93;59.67;;;;;;;;;;5046808;28;20414;-63
2024/02/02 09:53:21;;;;;;;86.10;59.53;;;;;;;;;;5049782;28;20040;-61
2024/02/02 09:55:59;;;;;;;92.20;59.90;;;;;;;;;;5047619;28;20025;-62
2024/02/02 09:58:37;;;;;;;96.53;61.97;;;;;;;;;;5043998;28;20041;-60
2024/02/02 10:01:09;;;;;;;88.27;60.97;;;;;;;;;;5051453;28;20024;-61
2024/02/02 10:03:53;;;;;;;83.90;57.87;;;;;;;;;;5047798;28;20482;-55
2024/02/02 10:06:25;;;;;;;88.97;60.53;;;;;;;;;;5038113;28;20100;-70
2024/02/02 10:09:04;;;;;;;85.37;59.10;;;;;;;;;;5047567;28;20045;-71
2024/02/02 10:11:33;;;;;;;94.40;61.67;;;;;;;;;;5045330;28;20055;-70
2024/02/02 10:14:12;;;;;;;94.87;61.77;;;;;;;;;;5052167;28;20021;-71
2024/02/02 10:16:47;;;;;;;97.30;64.60;;;;;;;;;;5051868;28;20032;-71
2024/02/02 10:19:32;;;;;;;93.88;62.40;;;;;;;;;;5037082;28;20113;-64
2024/02/02 10:22:01;;;;;;;91.13;62.13;;;;;;;;;;5051318;28;20093;-68
2024/02/02 10:24:30;;;;;;;84.20;58.50;;;;;;;;;;5051735;28;20032;-73
2024/02/02 10:26:56;;;;;;;85.93;57.60;;;;;;;;;;5051466;28;20518;-55
2024/02/02 10:29:27;;;;;;;85.13;57.72;;;;;;;;;;5051434;28;20407;-68
2024/02/02 10:35:23;;;;;;;86.70;56.50;;;;;;;;;;5031690;28;20175;-67
2024/02/02 10:37:51;;;;;;;81.43;56.05;;;;;;;;;;5050915;28;20092;-67
2024/02/02 10:40:33;;;;;;;82.13;57.07;;;;;;;;;;5054484;28;20494;-67
2024/02/02 10:43:18;;;;;;;87.73;57.93;;;;;;;;;;5041667;28;20382;-67
2024/02/02 10:45:54;;;;;;;83.88;57.28;;;;;;;;;;5055600;28;20119;-67
2024/02/02 10:48:40;;;;;;;80.70;55.03;;;;;;;;;;5055601;28;20082;-67
2024/02/02 10:51:13;;;;;;;80.47;54.93;;;;;;;;;;5054505;28;20121;-68
2024/02/02 10:53:42;;;;;;;81.70;55.97;;;;;;;;;;5055230;28;20021;-64
2024/02/02 10:56:22;;;;;;;86.93;58.08;;;;;;;;;;5055366;28;20051;-58
2024/02/02 10:58:47;;;;;;;85.47;56.47;;;;;;;;;;5055056;28;20494;-60
2024/02/02 11:01:25;;;;;;;79.20;54.33;;;;;;;;;;5055045;28;20110;-61
2024/02/02 11:04:13;;;;;;;82.80;56.50;;;;;;;;;;5055025;28;20025;-60
2024/02/02 11:06:42;;;;;;;91.55;57.13;;;;;;;;;;5054695;28;20059;-60
2024/02/02 11:09:17;;;;;;;86.53;57.17;;;;;;;;;;5054849;28;20509;-60
2024/02/02 11:11:47;;;;;;;80.47;54.72;;;;;;;;;;5054957;28;20037;-61
2024/02/02 11:14:23;;;;;;;75.45;53.33;;;;;;;;;;5055164;28;20133;-60
2024/02/02 11:16:49;;;;;;;83.25;54.47;;;;;;;;;;5055013;28;20437;-60
2024/02/02 11:19:15;;;;;;;83.85;53.65;;;;;;;;;;5045063;28;20033;-60
2024/02/02 11:22:02;;;;;;;81.68;56.08;;;;;;;;;;5050477;28;20021;-59
2024/02/02 11:24:36;;;;;;;80.63;53.97;;;;;;;;;;5053333;28;20021;-60
2024/02/02 11:27:06;;;;;;;84.28;55.35;;;;;;;;;;5054992;28;20421;-69
2024/02/02 11:29:41;;;;;;;81.95;54.83;;;;;;;;;;5054498;28;20111;-60
2024/02/02 11:32:07;;;;;;;82.38;56.17;;;;;;;;;;5054446;28;20106;-62
2024/02/02 11:34:33;;;;;;;84.95;54.88;;;;;;;;;;5039029;28;20135;-60
2024/02/02 11:37:22;;;;;;;82.45;53.88;;;;;;;;;;5051005;28;20475;-66
2024/02/02 11:39:59;;;;;;;79.53;52.80;;;;;;;;;;5036725;28;20043;-60
2024/02/02 11:42:26;;;;;;;78.63;55.38;;;;;;;;;;5054315;28;20379;-56
2024/02/02 11:44:56;;;;;;;73.05;50.97;;;;;;;;;;5043816;28;20035;-67
2024/02/02 11:47:23;;;;;;;81.93;54.13;;;;;;;;;;5037622;28;20019;-66
2024/02/02 11:49:52;;;;;;;79.72;52.80;;;;;;;;;;5054485;28;20186;-70
2024/02/02 11:52:38;;;;;;;78.07;51.45;;;;;;;;;;5040092;28;20083;-69
2024/02/02 11:55:25;;;;;;;74.43;49.55;;;;;;;;;;5041980;28;20055;-70
2024/02/02 11:57:55;;;;;;;77.35;51.00;;;;;;;;;;5037315;28;20029;-69
2024/02/02 12:00:28;;;;;;;74.43;48.03;;;;;;;;;;5048228;28;20013;-69
2024/02/02 12:03:13;;;;;;;76.00;50.75;;;;;;;;;;5048712;28;20025;-69
2024/02/02 12:05:53;;;;;;;74.88;50.15;;;;;;;;;;5052647;28;20025;-69
2024/02/02 12:08:27;;;;;;;76.28;50.15;;;;;;;;;;5053901;28;20068;-69
2024/02/02 12:10:55;;;;;;;69.60;48.50;;;;;;;;;;5053634;28;20499;-69
2024/02/02 12:13:24;;;;;;;69.80;49.05;;;;;;;;;;5049336;28;20475;-70
2024/02/02 12:15:52;;;;;;;65.85;43.03;;;;;;;;;;5043245;28;20025;-70
2024/02/02 12:18:19;;;;;;;67.00;43.70;;;;;;;;;;5053375;28;20036;-70
2024/02/02 12:20:45;;;;;;;62.92;43.85;;;;;;;;;;5046397;28;20086;-70
2024/02/02 12:23:11;;;;;;;68.55;43.80;;;;;;;;;;5046081;28;20040;-70
2024/02/02 12:25:37;;;;;;;63.53;43.15;;;;;;;;;;5053491;28;20025;-70
2024/02/02 12:28:04;;;;;;;63.42;43.60;;;;;;;;;;5051856;28;20025;-69
2024/02/02 12:30:31;;;;;;;70.88;44.65;;;;;;;;;;5053221;28;20099;-70
2024/02/02 12:32:57;;;;;;;68.10;44.85;;;;;;;;;;5053293;28;20025;-70
2024/02/02 12:35:24;;;;;;;65.50;44.65;;;;;;;;;;5053503;28;20029;-70
2024/02/02 12:37:50;;;;;;;67.18;45.60;;;;;;;;;;5052091;28;20027;-70
2024/02/02 12:40:19;;;;;;;69.40;48.42;;;;;;;;;;5053145;28;20033;-69
2024/02/02 12:42:45;;;;;;;69.05;48.03;;;;;;;;;;5051789;28;20023;-70
2024/02/02 12:45:15;;;;;;;76.40;50.67;;;;;;;;;;5053347;28;20328;-69
2024/02/02 12:47:41;;;;;;;68.65;47.55;;;;;;;;;;5052953;28;20017;-69
2024/02/02 12:50:21;;;;;;;74.90;49.50;;;;;;;;;;5053067;28;20044;-69
2024/02/02 12:52:50;;;;;;;71.18;46.88;;;;;;;;;;5051665;28;20107;-70
2024/02/02 12:55:16;;;;;;;69.47;48.75;;;;;;;;;;5051605;28;20116;-70
2024/02/02 12:57:42;;;;;;;73.50;47.42;;;;;;;;;;5051269;28;20124;-69
2024/02/02 13:00:14;;;;;;;65.78;45.38;;;;;;;;;;5052928;28;20070;-70
2024/02/02 13:02:41;;;;;;;63.53;41.47;;;;;;;;;;5052618;28;20032;-69
2024/02/02 13:05:10;;;;;;;60.90;42.83;;;;;;;;;;5052575;28;20033;-69
2024/02/02 13:07:36;;;;;;;63.88;43.53;;;;;;;;;;5051179;28;20052;-69
2024/02/02 13:10:05;;;;;;;63.15;39.55;;;;;;;;;;5038431;28;20102;-69
2024/02/02 13:12:39;;;;;;;51.72;38.35;;;;;;;;;;5052590;28;20028;-69
2024/02/02 13:15:10;;;;;;;55.20;37.47;;;;;;;;;;5039374;28;20485;-69
2024/02/02 13:17:40;;;;;;;49.42;33.65;;;;;;;;;;5052500;28;20029;-69
2024/02/02 13:20:29;;;;;;;50.15;35.15;;;;;;;;;;5052451;28;20461;-69
2024/02/02 13:23:00;;;;;;;45.83;33.15;;;;;;;;;;5052275;28;20021;-69
2024/02/02 13:25:27;;;;;;;47.00;33.40;;;;;;;;;;5051008;28;20141;-70
2024/02/02 13:27:54;;;;;;;51.47;33.20;;;;;;;;;;5052546;28;20458;-70
2024/02/02 13:30:30;;;;;;;52.25;34.42;;;;;;;;;;5052487;28;20013;-69
2024/02/02 13:32:56;;;;;;;44.53;32.22;;;;;;;;;;5052223;28;20101;-69
2024/02/02 13:35:23;;;;;;;50.00;32.55;;;;;;;;;;5045257;28;20124;-69
2024/02/02 13:37:52;;;;;;;48.78;31.30;;;;;;;;;;5036423;28;20463;-70
2024/02/02 13:40:27;;;;;;;47.85;32.47;;;;;;;;;;5052157;28;20032;-65
2024/02/02 13:42:53;;;;;;;48.03;33.53;;;;;;;;;;5051969;28;20108;-66
2024/02/02 13:45:19;;;;;;;48.90;33.28;;;;;;;;;;5042261;28;20442;-65
2024/02/02 13:47:54;;;;;;;48.42;34.97;;;;;;;;;;5048644;28;20017;-64
2024/02/02 13:50:29;;;;;;;53.90;36.17;;;;;;;;;;5041477;28;20029;-62
2024/02/02 13:52:55;;;;;;;47.17;33.50;;;;;;;;;;5048954;28;20040;-61
2024/02/02 13:55:21;;;;;;;48.63;32.65;;;;;;;;;;5050239;28;20029;-64
2024/02/02 13:57:48;;;;;;;50.47;34.88;;;;;;;;;;5051592;28;20367;-58
2024/02/02 14:03:21;;;;;;;51.97;34.90;;;;;;;;;;5041638;28;20036;-70
2024/02/02 14:05:47;;;;;;;49.25;35.58;;;;;;;;;;5051931;28;20025;-69